logo
Search for airport 
image banner adimage banner adimage banner ad
image banner ad

ZPJH - Xishuangbanna/Gasa

Located in Jinghong, China

ICAO - ZPJH, IATA - JHG

Data provided by Airmate  

General information

Coordinates: N21°58'30" E100°45'42"
Elevation is 1815 feet MSL.
 
View others Airports in Yunnan Province

Operational data

Special qualification required
Current time UTC:
Current local time:
Weather at : - ( 0 km )
METAR: KSHV 251556Z 20005KT 10SM BKN012 BKN030 OVC150 27/23 A3016 RMK RAB05E20 SLPNO
View NOTAMs / SUP AIP / TFR affecting this airport [VIEW]
Communications frequencies: [VIEW]

Runways:

RWY identifierQFULength (ft)Width (ft)SurfaceLDA (ft)
16160°7874148CON
34340°7874148CON

Airport contact information

Address: Jinghong China

Satellite view of ZPJH